Cinzia A — TCA4007 — position and weather

sailwx.info

Track history (hours):
 
Tides and Currents Weather Stations Pressure Air Temp Water Temp Dewpoint Dewpoint Depression Visibility Wind Speed Wind Dir Waves Ship Positions

Cinzia A

Last reported at 2017-Sep-16 09:17 UTC. Time now 2017-Sep-22 02:53 UTC.
Position N 36°33' E 024°18'.

Length 200 m; draft 9 m.

Type: Ship (hazmat cat A). MMSI: 271044448.

Date/timePositionNaut miles runAvg speedWind from/ knotsBaromVisibWave heightAir tempDewpointWater temp
2017-Sep-16 09:17N 36°33' E 024°18'414.5
2017-Sep-16 09:00N 36°35' E 024°14'4016.7
2017-Sep-16 06:36N 37°13' E 023°56'1417.8
2017-Sep-16 05:49N 37°25' E 023°49'617.8
2017-Sep-16 05:30N 37°31' E 023°47'917.9
2017-Sep-16 05:00N 37°39' E 023°42'917.9
2017-Sep-16 04:30N 37°47' E 023°38'816.2
2017-Sep-16 04:00N 37°55' E 023°37'2 4.4
2017-Sep-16 03:30N 37°57' E 023°36'0 0.0
2017-Sep-16 03:00N 37°57' E 023°36'0 0.0
2017-Sep-16 02:30N 37°57' E 023°36'0 0.0
2017-Sep-16 02:00N 37°57' E 023°36'0 0.0
2017-Sep-16 01:30N 37°57' E 023°36'0 0.0
2017-Sep-16 01:00N 37°57' E 023°36'0 0.0
2017-Sep-16 00:30N 37°57' E 023°36'0 0.0
2017-Sep-16 00:00N 37°57' E 023°36'0 0.0
2017-Sep-15 23:30N 37°57' E 023°36'0 0.0
2017-Sep-15 23:00N 37°57' E 023°36'0 0.0
2017-Sep-15 22:30N 37°57' E 023°36'0 0.0
2017-Sep-15 22:00N 37°57' E 023°36'0 0.0
2017-Sep-15 21:30N 37°57' E 023°36'0 0.0
2017-Sep-15 20:58N 37°57' E 023°36'0 0.0
2017-Sep-15 20:28N 37°57' E 023°36'0 0.0
2017-Sep-15 19:58N 37°57' E 023°36'0 0.0
2017-Sep-15 19:28N 37°57' E 023°36'0 0.0
2017-Sep-15 18:58N 37°57' E 023°36'0 0.0
2017-Sep-15 18:28N 37°57' E 023°36'0 0.8
2017-Sep-15 18:01N 37°57' E 023°36'1 2.7
2017-Sep-15 17:30N 37°55' E 023°36'1 1.5
2017-Sep-15 17:00N 37°55' E 023°36'3 6.1
2017-Sep-15 16:30N 37°52' E 023°35'1 1.4
2017-Sep-15 16:00N 37°51' E 023°34'0 0.3
2017-Sep-15 15:30N 37°51' E 023°34'0 0.4
2017-Sep-15 15:00N 37°51' E 023°34'1 2.5
2017-Sep-15 14:30N 37°51' E 023°32'1 1.0
2017-Sep-15 14:00N 37°50' E 023°32'1 1.0
2017-Sep-15 13:30N 37°50' E 023°32'0 0.8
2017-Sep-15 13:00N 37°50' E 023°33'0 0.4
2017-Sep-15 12:30N 37°50' E 023°33'1 2.4
2017-Sep-15 12:00N 37°51' E 023°35'3 5.8
2017-Sep-15 11:30N 37°51' E 023°38'2 4.9
2017-Sep-15 11:00N 37°49' E 023°41'3 5.5
2017-Sep-15 10:30N 37°47' E 023°42'4 7.6
2017-Sep-15 10:00N 37°43' E 023°44'612.7
2017-Sep-15 09:30N 37°37' E 023°46'612.8
2017-Sep-15 09:00N 37°31' E 023°47'612.0
2017-Sep-15 08:30N 37°25' E 023°45'713.2
2017-Sep-15 08:00N 37°19' E 023°43'3315.2
2017-Sep-15 05:49N 36°47' E 023°29'1416.4
2017-Sep-15 04:58N 36°34' E 023°23'14116.1
2017-Sep-14 20:11N 36°48' E 020°28'416.9
2017-Sep-14 19:58N 36°49' E 020°23'3817.0
2017-Sep-14 17:44N 36°58' E 019°37'417.1
2017-Sep-14 17:29N 36°60' E 019°32'918.1
2017-Sep-14 17:00N 37°02' E 019°22'1118.6
2017-Sep-14 16:25N 37°05' E 019°09'1318.6
2017-Sep-14 15:43N 37°09' E 018°53'618.6
2017-Sep-14 15:24N 37°11' E 018°46'1318.6
2017-Sep-14 14:43N 37°14' E 018°31'818.6
2017-Sep-14 14:19N 37°16' E 018°21'9818.2
2017-Sep-14 08:55N 37°42' E 016°22'1018.1
2017-Sep-14 08:22N 37°45' E 016°10'618.2
2017-Sep-14 08:00N 37°47' E 016°02'918.2
2017-Sep-14 07:30N 37°49' E 015°51'917.9
2017-Sep-14 07:01N 37°52' E 015°40'918.7
2017-Sep-14 06:30N 37°60' E 015°34'1019.0
2017-Sep-14 06:00N 38°09' E 015°35'815.7
2017-Sep-14 05:31N 38°16' E 015°40'510.6
2017-Sep-14 05:00N 38°21' E 015°37'612.4
2017-Sep-14 04:30N 38°25' E 015°32'816.7
2017-Sep-14 04:00N 38°31' E 015°24'918.5
2017-Sep-14 03:30N 38°37' E 015°16'918.3
2017-Sep-14 03:00N 38°44' E 015°07'49118.2
2017-Sep-12 23:57N 42°49' E 005°45'818.0
2017-Sep-12 23:30N 42°54' E 005°35'918.2
2017-Sep-12 23:00N 42°59' E 005°25'918.4
2017-Sep-12 22:31N 43°04' E 005°15'918.3
2017-Sep-12 22:00N 43°09' E 005°04'917.5
2017-Sep-12 21:30N 43°17' E 004°59'713.8
2017-Sep-12 21:01N 43°23' E 004°57'4 8.3
2017-Sep-12 20:29N 43°24' E 004°51'0 0.0
2017-Sep-12 19:59N 43°24' E 004°51'0 0.0
2017-Sep-12 19:26N 43°24' E 004°51'0 0.0
2017-Sep-12 18:59N 43°24' E 004°51'0 0.0
2017-Sep-12 18:29N 43°24' E 004°51'0 0.0
2017-Sep-12 17:58N 43°24' E 004°51'0 0.0
2017-Sep-12 17:28N 43°24' E 004°51'0 0.0
2017-Sep-12 16:58N 43°24' E 004°51'0 0.0
2017-Sep-12 16:29N 43°24' E 004°51'0 0.0
2017-Sep-12 16:00N 43°24' E 004°51'0 0.0
2017-Sep-12 15:27N 43°24' E 004°51'0 0.0
2017-Sep-12 14:59N 43°24' E 004°51'0 0.0
2017-Sep-12 14:29N 43°24' E 004°51'0 0.0
2017-Sep-12 13:59N 43°24' E 004°51'0 0.0
2017-Sep-12 13:29N 43°24' E 004°51'0 0.0
2017-Sep-12 12:59N 43°24' E 004°51'0 0.0
2017-Sep-12 12:29N 43°24' E 004°51'0 0.0
2017-Sep-12 11:59N 43°24' E 004°51'0 0.0
2017-Sep-12 11:29N 43°24' E 004°51'0 0.0
2017-Sep-12 10:57N 43°24' E 004°51'0 0.0
2017-Sep-12 10:30N 43°24' E 004°51'0 0.0
2017-Sep-12 10:00N 43°24' E 004°51'0 0.0
2017-Sep-12 09:30N 43°24' E 004°51'0 0.0
2017-Sep-12 09:00N 43°24' E 004°51'0 0.0
2017-Sep-12 08:30N 43°24' E 004°51'0 0.0
2017-Sep-12 08:00N 43°24' E 004°51'0 0.0
2017-Sep-12 07:30N 43°24' E 004°51'0 0.0
2017-Sep-12 07:00N 43°24' E 004°51'0 0.0
2017-Sep-12 06:30N 43°24' E 004°51'0 0.0
2017-Sep-12 06:00N 43°24' E 004°51'0 0.0
2017-Sep-12 05:30N 43°24' E 004°51'0 0.0
2017-Sep-12 05:00N 43°24' E 004°51'0 0.0
2017-Sep-12 04:30N 43°24' E 004°51'0 0.0
2017-Sep-12 04:00N 43°24' E 004°51'0 0.0
2017-Sep-12 03:24N 43°24' E 004°51'0 0.0
2017-Sep-12 03:00N 43°24' E 004°51'0 0.0
2017-Sep-12 02:30N 43°24' E 004°51'0 0.0
2017-Sep-12 01:57N 43°24' E 004°51'0 0.0
2017-Sep-12 01:30N 43°24' E 004°51'0 0.0
2017-Sep-12 01:00N 43°24' E 004°51'0 0.0
2017-Sep-12 00:30N 43°24' E 004°51'0 0.0
2017-Sep-12 00:00N 43°24' E 004°51'0 0.0
2017-Sep-11 23:30N 43°24' E 004°51'0 0.0
2017-Sep-11 23:00N 43°24' E 004°51'0 0.0
2017-Sep-11 22:30N 43°24' E 004°51'0 0.0
2017-Sep-11 22:00N 43°24' E 004°51'0 0.0
2017-Sep-11 21:30N 43°24' E 004°51'0 0.0
2017-Sep-11 21:00N 43°24' E 004°51'0 0.0
2017-Sep-11 20:30N 43°24' E 004°51'0 0.0
2017-Sep-11 19:57N 43°24' E 004°51'0 0.0
2017-Sep-11 19:29N 43°24' E 004°51'0 0.0
2017-Sep-11 18:59N 43°24' E 004°51'0 0.0
2017-Sep-11 18:29N 43°24' E 004°51'0 0.0
2017-Sep-11 17:59N 43°24' E 004°51'0 0.0
2017-Sep-11 17:29N 43°24' E 004°51'0 0.0
2017-Sep-11 16:53N 43°24' E 004°51'0 0.0
2017-Sep-11 16:29N 43°24' E 004°51'0 0.0
2017-Sep-11 15:56N 43°24' E 004°51'0 0.0
2017-Sep-11 15:29N 43°24' E 004°51'0 0.0
2017-Sep-11 14:58N 43°24' E 004°51'0 0.0
2017-Sep-11 14:28N 43°24' E 004°51'0 0.0
2017-Sep-11 13:58N 43°24' E 004°51'0 0.0
2017-Sep-11 13:25N 43°24' E 004°51'0 0.0
2017-Sep-11 12:55N 43°24' E 004°51'0 0.1
2017-Sep-11 12:30N 43°24' E 004°51'2 3.4
2017-Sep-11 12:00N 43°24' E 004°53'510.4
2017-Sep-11 11:31N 43°21' E 004°59'2 4.8
2017-Sep-11 11:00N 43°18' E 004°60'3 5.0
2017-Sep-11 10:30N 43°16' E 005°01'2 4.9
2017-Sep-11 10:00N 43°14' E 005°02'3 5.9
2017-Sep-11 09:31N 43°11' E 005°03'3 5.2
2017-Sep-11 09:00N 43°08' E 005°03'510.9
2017-Sep-11 08:30N 43°04' E 004°58'611.1
2017-Sep-11 08:01N 43°00' E 004°53'611.2
2017-Sep-11 07:30N 42°56' E 004°48'611.5
2017-Sep-11 07:00N 42°52' E 004°42'611.6
2017-Sep-11 06:30N 42°48' E 004°37'713.9
2017-Sep-11 06:00N 42°43' E 004°30'817.0
2017-Sep-11 05:31N 42°37' E 004°22'12617.3
2017-Sep-10 22:15N 41°16' E 002°12'2 0.3
2017-Sep-10 13:53N 41°18' E 002°11'1 0.1
2017-Sep-10 06:48N 41°18' E 002°12'0 0.0
2017-Sep-10 06:03N 41°18' E 002°12'0 0.2
2017-Sep-10 06:00N 41°18' E 002°12'0 0.0
2017-Sep-10 05:30N 41°18' E 002°12'0 0.0
2017-Sep-10 05:00N 41°18' E 002°12'0 0.0
2017-Sep-10 04:29N 41°18' E 002°12'0 0.0
2017-Sep-10 04:00N 41°18' E 002°12'0 0.0
2017-Sep-10 03:29N 41°18' E 002°12'0 0.0
2017-Sep-10 02:59N 41°18' E 002°12'0 0.0
2017-Sep-09 23:15N 41°18' E 002°11'7 6.4
2017-Sep-09 22:13N 41°12' E 002°07'311.9
2017-Sep-09 22:00N 41°10' E 002°05'611.8
2017-Sep-09 21:30N 41°06' E 002°00'611.8
2017-Sep-09 21:00N 41°01' E 001°55'612.1
2017-Sep-09 20:30N 40°56' E 001°50'612.3
2017-Sep-09 20:00N 40°51' E 001°45'713.9
2017-Sep-09 19:30N 40°46' E 001°40'715.0
2017-Sep-09 19:00N 40°40' E 001°33'714.9
2017-Sep-09 18:31N 40°35' E 001°27'714.9
2017-Sep-09 18:01N 40°31' E 001°18'815.5
2017-Sep-09 17:30N 40°27' E 001°10'816.7
2017-Sep-09 17:00N 40°22' E 001°00'816.7
2017-Sep-09 16:30N 40°18' E 000°51'1116.9
2017-Sep-09 15:52N 40°12' E 000°39'32 6.3
2017-Sep-09 10:46N 39°58' E 000°02'0 0.0
2017-Sep-09 08:46N 39°58' E 000°02'0 0.0
2017-Sep-09 08:16N 39°58' E 000°02'89 2.1
2017-Sep-07 14:57N 38°30' E 000°17'5112.6
2017-Sep-07 10:54N 37°48' W 000°19'612.5
2017-Sep-07 10:26N 37°43' W 000°23'512.5
2017-Sep-07 10:00N 37°38' W 000°27'612.2
2017-Sep-07 09:30N 37°33' W 000°31'611.8
2017-Sep-07 09:00N 37°29' W 000°37'612.1
2017-Sep-07 08:30N 37°25' W 000°42'612.1
2017-Sep-07 08:00N 37°21' W 000°48'612.2
2017-Sep-07 07:30N 37°17' W 000°54'612.2
2017-Sep-07 07:00N 37°13' W 000°60'612.1
2017-Sep-07 06:30N 37°10' W 001°06'1112.0
2017-Sep-07 05:37N 37°03' W 001°16'6512.1
2017-Sep-07 00:13N 36°21' W 002°19'312.4
2017-Sep-06 23:57N 36°21' W 002°23'612.4
2017-Sep-06 23:30N 36°20' W 002°30'612.7
2017-Sep-06 23:00N 36°19' W 002°38'712.5
2017-Sep-06 22:28N 36°18' W 002°46'12013.0
2017-Sep-06 13:14N 36°01' W 005°13'417.7
2017-Sep-06 13:01N 35°60' W 005°18'816.6
2017-Sep-06 12:30N 35°57' W 005°27'  
Track history (hours):
 
Tides and Currents Weather Stations Pressure Air Temp Water Temp Dewpoint Dewpoint Depression Visibility Wind Speed Wind Dir Waves Ship Positions

Cinzia A

Last reported at 2017-Sep-16 09:17 UTC. Time now 2017-Sep-22 02:53 UTC.
Position N 36°33' E 024°18'.

Length 200 m; draft 9 m.

Type: Ship (hazmat cat A). MMSI: 271044448.

Date/timePositionNaut miles runAvg speedWind from/ knotsBaromVisibWave heightAir tempDewpointWater temp
2017-Sep-16 09:17N 36°33' E 024°18'414.5
2017-Sep-16 09:00N 36°35' E 024°14'4016.7
2017-Sep-16 06:36N 37°13' E 023°56'1417.8
2017-Sep-16 05:49N 37°25' E 023°49'617.8
2017-Sep-16 05:30N 37°31' E 023°47'917.9
2017-Sep-16 05:00N 37°39' E 023°42'917.9
2017-Sep-16 04:30N 37°47' E 023°38'816.2
2017-Sep-16 04:00N 37°55' E 023°37'2 4.4
2017-Sep-16 03:30N 37°57' E 023°36'0 0.0
2017-Sep-16 03:00N 37°57' E 023°36'0 0.0
2017-Sep-16 02:30N 37°57' E 023°36'0 0.0
2017-Sep-16 02:00N 37°57' E 023°36'0 0.0
2017-Sep-16 01:30N 37°57' E 023°36'0 0.0
2017-Sep-16 01:00N 37°57' E 023°36'0 0.0
2017-Sep-16 00:30N 37°57' E 023°36'0 0.0
2017-Sep-16 00:00N 37°57' E 023°36'0 0.0
2017-Sep-15 23:30N 37°57' E 023°36'0 0.0
2017-Sep-15 23:00N 37°57' E 023°36'0 0.0
2017-Sep-15 22:30N 37°57' E 023°36'0 0.0
2017-Sep-15 22:00N 37°57' E 023°36'0 0.0
2017-Sep-15 21:30N 37°57' E 023°36'0 0.0
2017-Sep-15 20:58N 37°57' E 023°36'0 0.0
2017-Sep-15 20:28N 37°57' E 023°36'0 0.0
2017-Sep-15 19:58N 37°57' E 023°36'0 0.0
2017-Sep-15 19:28N 37°57' E 023°36'0 0.0
2017-Sep-15 18:58N 37°57' E 023°36'0 0.0
2017-Sep-15 18:28N 37°57' E 023°36'0 0.8
2017-Sep-15 18:01N 37°57' E 023°36'1 2.7
2017-Sep-15 17:30N 37°55' E 023°36'1 1.5
2017-Sep-15 17:00N 37°55' E 023°36'3 6.1
2017-Sep-15 16:30N 37°52' E 023°35'1 1.4
2017-Sep-15 16:00N 37°51' E 023°34'0 0.3
2017-Sep-15 15:30N 37°51' E 023°34'0 0.4
2017-Sep-15 15:00N 37°51' E 023°34'1 2.5
2017-Sep-15 14:30N 37°51' E 023°32'1 1.0
2017-Sep-15 14:00N 37°50' E 023°32'1 1.0
2017-Sep-15 13:30N 37°50' E 023°32'0 0.8
2017-Sep-15 13:00N 37°50' E 023°33'0 0.4
2017-Sep-15 12:30N 37°50' E 023°33'1 2.4
2017-Sep-15 12:00N 37°51' E 023°35'3 5.8
2017-Sep-15 11:30N 37°51' E 023°38'2 4.9
2017-Sep-15 11:00N 37°49' E 023°41'3 5.5
2017-Sep-15 10:30N 37°47' E 023°42'4 7.6
2017-Sep-15 10:00N 37°43' E 023°44'612.7
2017-Sep-15 09:30N 37°37' E 023°46'612.8
2017-Sep-15 09:00N 37°31' E 023°47'612.0
2017-Sep-15 08:30N 37°25' E 023°45'713.2
2017-Sep-15 08:00N 37°19' E 023°43'3315.2
2017-Sep-15 05:49N 36°47' E 023°29'1416.4
2017-Sep-15 04:58N 36°34' E 023°23'14116.1
2017-Sep-14 20:11N 36°48' E 020°28'416.9
2017-Sep-14 19:58N 36°49' E 020°23'3817.0
2017-Sep-14 17:44N 36°58' E 019°37'417.1
2017-Sep-14 17:29N 36°60' E 019°32'918.1
2017-Sep-14 17:00N 37°02' E 019°22'1118.6
2017-Sep-14 16:25N 37°05' E 019°09'1318.6
2017-Sep-14 15:43N 37°09' E 018°53'618.6
2017-Sep-14 15:24N 37°11' E 018°46'1318.6
2017-Sep-14 14:43N 37°14' E 018°31'818.6
2017-Sep-14 14:19N 37°16' E 018°21'9818.2
2017-Sep-14 08:55N 37°42' E 016°22'1018.1
2017-Sep-14 08:22N 37°45' E 016°10'618.2
2017-Sep-14 08:00N 37°47' E 016°02'918.2
2017-Sep-14 07:30N 37°49' E 015°51'917.9
2017-Sep-14 07:01N 37°52' E 015°40'918.7
2017-Sep-14 06:30N 37°60' E 015°34'1019.0
2017-Sep-14 06:00N 38°09' E 015°35'815.7
2017-Sep-14 05:31N 38°16' E 015°40'510.6
2017-Sep-14 05:00N 38°21' E 015°37'612.4
2017-Sep-14 04:30N 38°25' E 015°32'816.7
2017-Sep-14 04:00N 38°31' E 015°24'918.5
2017-Sep-14 03:30N 38°37' E 015°16'918.3
2017-Sep-14 03:00N 38°44' E 015°07'49118.2
2017-Sep-12 23:57N 42°49' E 005°45'818.0
2017-Sep-12 23:30N 42°54' E 005°35'918.2
2017-Sep-12 23:00N 42°59' E 005°25'918.4
2017-Sep-12 22:31N 43°04' E 005°15'918.3
2017-Sep-12 22:00N 43°09' E 005°04'917.5
2017-Sep-12 21:30N 43°17' E 004°59'713.8
2017-Sep-12 21:01N 43°23' E 004°57'4 8.3
2017-Sep-12 20:29N 43°24' E 004°51'0 0.0
2017-Sep-12 19:59N 43°24' E 004°51'0 0.0
2017-Sep-12 19:26N 43°24' E 004°51'0 0.0
2017-Sep-12 18:59N 43°24' E 004°51'0 0.0
2017-Sep-12 18:29N 43°24' E 004°51'0 0.0
2017-Sep-12 17:58N 43°24' E 004°51'0 0.0
2017-Sep-12 17:28N 43°24' E 004°51'0 0.0
2017-Sep-12 16:58N 43°24' E 004°51'0 0.0
2017-Sep-12 16:29N 43°24' E 004°51'0 0.0
2017-Sep-12 16:00N 43°24' E 004°51'0 0.0
2017-Sep-12 15:27N 43°24' E 004°51'0 0.0
2017-Sep-12 14:59N 43°24' E 004°51'0 0.0
2017-Sep-12 14:29N 43°24' E 004°51'0 0.0
2017-Sep-12 13:59N 43°24' E 004°51'0 0.0
2017-Sep-12 13:29N 43°24' E 004°51'0 0.0
2017-Sep-12 12:59N 43°24' E 004°51'0 0.0
2017-Sep-12 12:29N 43°24' E 004°51'0 0.0
2017-Sep-12 11:59N 43°24' E 004°51'0 0.0
2017-Sep-12 11:29N 43°24' E 004°51'0 0.0
2017-Sep-12 10:57N 43°24' E 004°51'0 0.0
2017-Sep-12 10:30N 43°24' E 004°51'0 0.0
2017-Sep-12 10:00N 43°24' E 004°51'0 0.0
2017-Sep-12 09:30N 43°24' E 004°51'0 0.0
2017-Sep-12 09:00N 43°24' E 004°51'0 0.0
2017-Sep-12 08:30N 43°24' E 004°51'0 0.0
2017-Sep-12 08:00N 43°24' E 004°51'0 0.0
2017-Sep-12 07:30N 43°24' E 004°51'0 0.0
2017-Sep-12 07:00N 43°24' E 004°51'0 0.0
2017-Sep-12 06:30N 43°24' E 004°51'0 0.0
2017-Sep-12 06:00N 43°24' E 004°51'0 0.0
2017-Sep-12 05:30N 43°24' E 004°51'0 0.0
2017-Sep-12 05:00N 43°24' E 004°51'0 0.0
2017-Sep-12 04:30N 43°24' E 004°51'0 0.0
2017-Sep-12 04:00N 43°24' E 004°51'0 0.0
2017-Sep-12 03:24N 43°24' E 004°51'0 0.0
2017-Sep-12 03:00N 43°24' E 004°51'0 0.0
2017-Sep-12 02:30N 43°24' E 004°51'0 0.0
2017-Sep-12 01:57N 43°24' E 004°51'0 0.0
2017-Sep-12 01:30N 43°24' E 004°51'0 0.0
2017-Sep-12 01:00N 43°24' E 004°51'0 0.0
2017-Sep-12 00:30N 43°24' E 004°51'0 0.0
2017-Sep-12 00:00N 43°24' E 004°51'0 0.0
2017-Sep-11 23:30N 43°24' E 004°51'0 0.0
2017-Sep-11 23:00N 43°24' E 004°51'0 0.0
2017-Sep-11 22:30N 43°24' E 004°51'0 0.0
2017-Sep-11 22:00N 43°24' E 004°51'0 0.0
2017-Sep-11 21:30N 43°24' E 004°51'0 0.0
2017-Sep-11 21:00N 43°24' E 004°51'0 0.0
2017-Sep-11 20:30N 43°24' E 004°51'0 0.0
2017-Sep-11 19:57N 43°24' E 004°51'0 0.0
2017-Sep-11 19:29N 43°24' E 004°51'0 0.0
2017-Sep-11 18:59N 43°24' E 004°51'0 0.0
2017-Sep-11 18:29N 43°24' E 004°51'0 0.0
2017-Sep-11 17:59N 43°24' E 004°51'0 0.0
2017-Sep-11 17:29N 43°24' E 004°51'0 0.0
2017-Sep-11 16:53N 43°24' E 004°51'0 0.0
2017-Sep-11 16:29N 43°24' E 004°51'0 0.0
2017-Sep-11 15:56N 43°24' E 004°51'0 0.0
2017-Sep-11 15:29N 43°24' E 004°51'0 0.0
2017-Sep-11 14:58N 43°24' E 004°51'0 0.0
2017-Sep-11 14:28N 43°24' E 004°51'0 0.0
2017-Sep-11 13:58N 43°24' E 004°51'0 0.0
2017-Sep-11 13:25N 43°24' E 004°51'0 0.0
2017-Sep-11 12:55N 43°24' E 004°51'0 0.1
2017-Sep-11 12:30N 43°24' E 004°51'2 3.4
2017-Sep-11 12:00N 43°24' E 004°53'510.4
2017-Sep-11 11:31N 43°21' E 004°59'2 4.8
2017-Sep-11 11:00N 43°18' E 004°60'3 5.0
2017-Sep-11 10:30N 43°16' E 005°01'2 4.9
2017-Sep-11 10:00N 43°14' E 005°02'3 5.9
2017-Sep-11 09:31N 43°11' E 005°03'3 5.2
2017-Sep-11 09:00N 43°08' E 005°03'510.9
2017-Sep-11 08:30N 43°04' E 004°58'611.1
2017-Sep-11 08:01N 43°00' E 004°53'611.2
2017-Sep-11 07:30N 42°56' E 004°48'611.5
2017-Sep-11 07:00N 42°52' E 004°42'611.6
2017-Sep-11 06:30N 42°48' E 004°37'713.9
2017-Sep-11 06:00N 42°43' E 004°30'817.0
2017-Sep-11 05:31N 42°37' E 004°22'12617.3
2017-Sep-10 22:15N 41°16' E 002°12'2 0.3
2017-Sep-10 13:53N 41°18' E 002°11'1 0.1
2017-Sep-10 06:48N 41°18' E 002°12'0 0.0
2017-Sep-10 06:03N 41°18' E 002°12'0 0.2
2017-Sep-10 06:00N 41°18' E 002°12'0 0.0
2017-Sep-10 05:30N 41°18' E 002°12'0 0.0
2017-Sep-10 05:00N 41°18' E 002°12'0 0.0
2017-Sep-10 04:29N 41°18' E 002°12'0 0.0
2017-Sep-10 04:00N 41°18' E 002°12'0 0.0
2017-Sep-10 03:29N 41°18' E 002°12'0 0.0
2017-Sep-10 02:59N 41°18' E 002°12'0 0.0
2017-Sep-09 23:15N 41°18' E 002°11'7 6.4
2017-Sep-09 22:13N 41°12' E 002°07'311.9
2017-Sep-09 22:00N 41°10' E 002°05'611.8
2017-Sep-09 21:30N 41°06' E 002°00'611.8
2017-Sep-09 21:00N 41°01' E 001°55'612.1
2017-Sep-09 20:30N 40°56' E 001°50'612.3
2017-Sep-09 20:00N 40°51' E 001°45'713.9
2017-Sep-09 19:30N 40°46' E 001°40'715.0
2017-Sep-09 19:00N 40°40' E 001°33'714.9
2017-Sep-09 18:31N 40°35' E 001°27'714.9
2017-Sep-09 18:01N 40°31' E 001°18'815.5
2017-Sep-09 17:30N 40°27' E 001°10'816.7
2017-Sep-09 17:00N 40°22' E 001°00'816.7
2017-Sep-09 16:30N 40°18' E 000°51'1116.9
2017-Sep-09 15:52N 40°12' E 000°39'32 6.3
2017-Sep-09 10:46N 39°58' E 000°02'0 0.0
2017-Sep-09 08:46N 39°58' E 000°02'0 0.0
2017-Sep-09 08:16N 39°58' E 000°02'89 2.1
2017-Sep-07 14:57N 38°30' E 000°17'5112.6
2017-Sep-07 10:54N 37°48' W 000°19'612.5
2017-Sep-07 10:26N 37°43' W 000°23'512.5
2017-Sep-07 10:00N 37°38' W 000°27'612.2
2017-Sep-07 09:30N 37°33' W 000°31'611.8
2017-Sep-07 09:00N 37°29' W 000°37'612.1
2017-Sep-07 08:30N 37°25' W 000°42'612.1
2017-Sep-07 08:00N 37°21' W 000°48'612.2
2017-Sep-07 07:30N 37°17' W 000°54'612.2
2017-Sep-07 07:00N 37°13' W 000°60'612.1
2017-Sep-07 06:30N 37°10' W 001°06'1112.0
2017-Sep-07 05:37N 37°03' W 001°16'6512.1
2017-Sep-07 00:13N 36°21' W 002°19'312.4
2017-Sep-06 23:57N 36°21' W 002°23'612.4
2017-Sep-06 23:30N 36°20' W 002°30'612.7
2017-Sep-06 23:00N 36°19' W 002°38'712.5
2017-Sep-06 22:28N 36°18' W 002°46'12013.0
2017-Sep-06 13:14N 36°01' W 005°13'417.7
2017-Sep-06 13:01N 35°60' W 005°18'816.6
2017-Sep-06 12:30N 35°57' W 005°27'  

Dump ship's entire track history